sensor_id;sensor_type;location;lat;lon;timestamp;P1;durP1;ratioP1;P2;durP2;ratioP2
2662;SDS011;49701;48.072;7.800;2023-08-07T00:02:25;3.10;;;1.38;;
2662;SDS011;49701;48.072;7.800;2023-08-07T00:04:51;2.85;;;1.40;;
2662;SDS011;49701;48.072;7.800;2023-08-07T00:07:16;4.13;;;1.20;;
2662;SDS011;49701;48.072;7.800;2023-08-07T00:09:43;3.70;;;1.20;;
2662;SDS011;49701;48.072;7.800;2023-08-07T00:12:09;3.70;;;1.40;;
2662;SDS011;49701;48.072;7.800;2023-08-07T00:14:34;5.93;;;1.60;;
2662;SDS011;49701;48.072;7.800;2023-08-07T00:17:00;2.00;;;1.13;;
2662;SDS011;49701;48.072;7.800;2023-08-07T00:19:26;2.50;;;1.13;;
2662;SDS011;49701;48.072;7.800;2023-08-07T00:21:51;3.60;;;1.40;;
2662;SDS011;49701;48.072;7.800;2023-08-07T00:24:17;1.30;;;1.20;;
2662;SDS011;49701;48.072;7.800;2023-08-07T00:26:42;4.40;;;1.67;;
2662;SDS011;49701;48.072;7.800;2023-08-07T00:29:08;4.13;;;1.35;;
2662;SDS011;49701;48.072;7.800;2023-08-07T00:31:34;1.73;;;1.10;;
2662;SDS011;49701;48.072;7.800;2023-08-07T00:33:59;2.20;;;1.10;;
2662;SDS011;49701;48.072;7.800;2023-08-07T00:36:25;2.45;;;1.33;;
2662;SDS011;49701;48.072;7.800;2023-08-07T00:38:53;2.97;;;1.20;;
2662;SDS011;49701;48.072;7.800;2023-08-07T00:41:19;4.20;;;1.38;;
2662;SDS011;49701;48.072;7.800;2023-08-07T00:43:45;2.78;;;1.33;;
2662;SDS011;49701;48.072;7.800;2023-08-07T00:46:11;3.22;;;1.48;;
2662;SDS011;49701;48.072;7.800;2023-08-07T00:48:36;4.65;;;1.40;;
2662;SDS011;49701;48.072;7.800;2023-08-07T00:51:03;3.55;;;1.30;;
2662;SDS011;49701;48.072;7.800;2023-08-07T00:53:30;3.22;;;1.33;;
2662;SDS011;49701;48.072;7.800;2023-08-07T00:55:56;3.83;;;1.58;;
2662;SDS011;49701;48.072;7.800;2023-08-07T00:58:23;2.58;;;1.27;;
2662;SDS011;49701;48.072;7.800;2023-08-07T01:00:49;2.38;;;1.35;;
2662;SDS011;49701;48.072;7.800;2023-08-07T01:03:14;5.45;;;1.52;;
2662;SDS011;49701;48.072;7.800;2023-08-07T01:05:40;3.00;;;1.55;;
2662;SDS011;49701;48.072;7.800;2023-08-07T01:08:06;3.47;;;1.63;;
2662;SDS011;49701;48.072;7.800;2023-08-07T04:55:29;4.35;;;1.73;;
2662;SDS011;49701;48.072;7.800;2023-08-07T04:57:56;2.33;;;1.50;;
2662;SDS011;49701;48.072;7.800;2023-08-07T05:00:22;7.57;;;1.58;;
2662;SDS011;49701;48.072;7.800;2023-08-07T05:02:48;4.97;;;1.75;;
2662;SDS011;49701;48.072;7.800;2023-08-07T05:05:14;2.88;;;1.70;;
2662;SDS011;49701;48.072;7.800;2023-08-07T05:07:40;2.38;;;1.48;;
2662;SDS011;49701;48.072;7.800;2023-08-07T05:10:07;2.30;;;1.60;;
2662;SDS011;49701;48.072;7.800;2023-08-07T05:12:34;3.38;;;1.45;;
2662;SDS011;49701;48.072;7.800;2023-08-07T05:15:00;3.00;;;1.77;;
2662;SDS011;49701;48.072;7.800;2023-08-07T05:17:25;4.38;;;1.40;;
2662;SDS011;49701;48.072;7.800;2023-08-07T05:19:51;3.42;;;2.00;;
2662;SDS011;49701;48.072;7.800;2023-08-07T05:22:17;2.05;;;1.48;;
2662;SDS011;49701;48.072;7.800;2023-08-07T05:24:42;2.03;;;1.60;;
2662;SDS011;49701;48.072;7.800;2023-08-07T05:27:10;3.20;;;1.60;;
2662;SDS011;49701;48.072;7.800;2023-08-07T05:29:36;4.57;;;1.33;;
2662;SDS011;49701;48.072;7.800;2023-08-07T05:32:12;2.10;;;1.70;;
2662;SDS011;49701;48.072;7.800;2023-08-07T05:34:38;5.03;;;2.00;;
2662;SDS011;49701;48.072;7.800;2023-08-07T05:37:04;3.85;;;1.60;;
2662;SDS011;49701;48.072;7.800;2023-08-07T05:39:31;3.58;;;1.52;;
2662;SDS011;49701;48.072;7.800;2023-08-07T05:41:56;2.58;;;1.75;;
2662;SDS011;49701;48.072;7.800;2023-08-07T05:44:25;2.42;;;2.08;;
2662;SDS011;49701;48.072;7.800;2023-08-07T05:46:51;3.28;;;1.60;;
2662;SDS011;49701;48.072;7.800;2023-08-07T05:49:17;2.08;;;1.42;;
2662;SDS011;49701;48.072;7.800;2023-08-07T05:51:43;3.22;;;1.80;;
2662;SDS011;49701;48.072;7.800;2023-08-07T05:54:08;2.38;;;1.50;;
2662;SDS011;49701;48.072;7.800;2023-08-07T05:56:35;3.67;;;1.75;;
2662;SDS011;49701;48.072;7.800;2023-08-07T05:59:02;3.35;;;1.55;;
2662;SDS011;49701;48.072;7.800;2023-08-07T06:01:28;1.98;;;1.40;;
2662;SDS011;49701;48.072;7.800;2023-08-07T06:03:59;5.55;;;1.80;;
2662;SDS011;49701;48.072;7.800;2023-08-07T06:06:26;3.15;;;1.50;;
2662;SDS011;49701;48.072;7.800;2023-08-07T06:08:56;3.97;;;1.35;;
2662;SDS011;49701;48.072;7.800;2023-08-07T06:11:21;3.50;;;1.50;;
2662;SDS011;49701;48.072;7.800;2023-08-07T06:13:48;4.60;;;1.60;;
2662;SDS011;49701;48.072;7.800;2023-08-07T06:18:39;3.03;;;1.67;;
2662;SDS011;49701;48.072;7.800;2023-08-07T06:21:05;3.13;;;1.42;;
2662;SDS011;49701;48.072;7.800;2023-08-07T06:23:35;2.45;;;1.50;;
2662;SDS011;49701;48.072;7.800;2023-08-07T06:26:01;2.25;;;1.52;;
2662;SDS011;49701;48.072;7.800;2023-08-07T06:28:33;2.58;;;1.40;;
2662;SDS011;49701;48.072;7.800;2023-08-07T06:31:05;2.50;;;1.50;;
2662;SDS011;49701;48.072;7.800;2023-08-07T06:33:32;2.22;;;1.50;;
2662;SDS011;49701;48.072;7.800;2023-08-07T06:36:01;4.50;;;1.40;;
2662;SDS011;49701;48.072;7.800;2023-08-07T06:38:27;2.72;;;1.50;;
2662;SDS011;49701;48.072;7.800;2023-08-07T06:40:53;2.45;;;1.40;;
2662;SDS011;49701;48.072;7.800;2023-08-07T06:43:19;3.30;;;1.60;;
2662;SDS011;49701;48.072;7.800;2023-08-07T06:45:54;2.55;;;1.45;;
2662;SDS011;49701;48.072;7.800;2023-08-07T06:48:23;3.33;;;1.33;;
2662;SDS011;49701;48.072;7.800;2023-08-07T06:50:50;1.45;;;1.10;;
2662;SDS011;49701;48.072;7.800;2023-08-07T06:53:16;2.33;;;1.45;;
2662;SDS011;49701;48.072;7.800;2023-08-07T06:55:42;3.08;;;1.40;;
2662;SDS011;49701;48.072;7.800;2023-08-07T06:58:08;5.00;;;1.60;;
2662;SDS011;49701;48.072;7.800;2023-08-07T07:00:34;1.20;;;1.10;;
2662;SDS011;49701;48.072;7.800;2023-08-07T07:03:01;4.50;;;1.27;;
2662;SDS011;49701;48.072;7.800;2023-08-07T07:05:27;2.33;;;1.17;;
2662;SDS011;49701;48.072;7.800;2023-08-07T07:07:53;3.15;;;1.27;;
2662;SDS011;49701;48.072;7.800;2023-08-07T07:10:19;3.58;;;1.17;;
2662;SDS011;49701;48.072;7.800;2023-08-07T07:12:45;4.00;;;1.38;;
2662;SDS011;49701;48.072;7.800;2023-08-07T07:15:11;2.58;;;1.27;;
2662;SDS011;49701;48.072;7.800;2023-08-07T07:17:38;2.90;;;1.10;;
2662;SDS011;49701;48.072;7.800;2023-08-07T07:20:04;2.53;;;1.30;;
2662;SDS011;49701;48.072;7.800;2023-08-07T07:22:30;3.10;;;1.20;;
2662;SDS011;49701;48.072;7.800;2023-08-07T07:24:55;5.28;;;1.83;;
2662;SDS011;49701;48.072;7.800;2023-08-07T07:27:21;3.08;;;1.50;;
2662;SDS011;49701;48.072;7.800;2023-08-07T07:29:51;2.20;;;1.17;;
2662;SDS011;49701;48.072;7.800;2023-08-07T07:32:17;5.75;;;1.38;;
2662;SDS011;49701;48.072;7.800;2023-08-07T07:34:43;1.90;;;1.30;;
2662;SDS011;49701;48.072;7.800;2023-08-07T07:37:08;2.15;;;1.20;;
2662;SDS011;49701;48.072;7.800;2023-08-07T07:39:34;5.28;;;1.40;;
2662;SDS011;49701;48.072;7.800;2023-08-07T07:42:01;2.88;;;1.30;;
2662;SDS011;49701;48.072;7.800;2023-08-07T07:44:26;2.63;;;1.30;;
2662;SDS011;49701;48.072;7.800;2023-08-07T07:46:52;2.53;;;1.15;;
2662;SDS011;49701;48.072;7.800;2023-08-07T07:49:18;1.67;;;1.25;;
2662;SDS011;49701;48.072;7.800;2023-08-07T07:51:44;2.50;;;1.40;;
2662;SDS011;49701;48.072;7.800;2023-08-07T07:54:11;1.42;;;0.95;;
2662;SDS011;49701;48.072;7.800;2023-08-07T07:56:37;1.33;;;1.13;;
2662;SDS011;49701;48.072;7.800;2023-08-07T07:59:02;3.40;;;1.30;;
2662;SDS011;49701;48.072;7.800;2023-08-07T08:01:28;3.58;;;1.20;;
2662;SDS011;49701;48.072;7.800;2023-08-07T08:03:54;1.45;;;1.35;;
2662;SDS011;49701;48.072;7.800;2023-08-07T08:06:19;2.38;;;1.10;;
2662;SDS011;49701;48.072;7.800;2023-08-07T08:08:45;2.65;;;1.27;;
2662;SDS011;49701;48.072;7.800;2023-08-07T08:11:11;3.33;;;1.20;;
2662;SDS011;49701;48.072;7.800;2023-08-07T08:13:36;3.50;;;1.13;;
2662;SDS011;49701;48.072;7.800;2023-08-07T08:16:05;2.05;;;1.17;;
2662;SDS011;49701;48.072;7.800;2023-08-07T08:18:30;3.65;;;1.40;;
2662;SDS011;49701;48.072;7.800;2023-08-07T08:20:56;2.22;;;1.45;;
2662;SDS011;49701;48.072;7.800;2023-08-07T08:23:22;1.92;;;1.45;;
2662;SDS011;49701;48.072;7.800;2023-08-07T08:25:48;3.10;;;1.50;;
2662;SDS011;49701;48.072;7.800;2023-08-07T08:28:14;2.67;;;1.38;;
2662;SDS011;49701;48.072;7.800;2023-08-07T08:30:41;3.70;;;1.73;;
2662;SDS011;49701;48.072;7.800;2023-08-07T08:33:06;3.08;;;1.40;;
2662;SDS011;49701;48.072;7.800;2023-08-07T08:35:34;3.63;;;1.80;;
2662;SDS011;49701;48.072;7.800;2023-08-07T08:38:00;2.38;;;1.27;;
2662;SDS011;49701;48.072;7.800;2023-08-07T08:40:26;2.25;;;1.38;;
2662;SDS011;49701;48.072;7.800;2023-08-07T08:42:52;4.18;;;1.70;;
2662;SDS011;49701;48.072;7.800;2023-08-07T08:45:22;4.97;;;1.52;;
2662;SDS011;49701;48.072;7.800;2023-08-07T08:47:51;3.13;;;1.20;;
2662;SDS011;49701;48.072;7.800;2023-08-07T08:50:23;3.30;;;1.50;;
2662;SDS011;49701;48.072;7.800;2023-08-07T08:52:49;2.20;;;1.30;;
2662;SDS011;49701;48.072;7.800;2023-08-07T08:55:19;2.75;;;1.38;;
2662;SDS011;49701;48.072;7.800;2023-08-07T08:57:48;3.30;;;1.60;;
2662;SDS011;49701;48.072;7.800;2023-08-07T09:00:18;2.53;;;1.20;;
2662;SDS011;49701;48.072;7.800;2023-08-07T09:02:48;4.53;;;1.58;;
2662;SDS011;49701;48.072;7.800;2023-08-07T09:05:16;4.05;;;1.70;;
2662;SDS011;49701;48.072;7.800;2023-08-07T09:07:46;4.65;;;1.65;;
2662;SDS011;49701;48.072;7.800;2023-08-07T09:10:14;3.72;;;1.95;;
2662;SDS011;49701;48.072;7.800;2023-08-07T09:12:42;5.75;;;1.50;;
2662;SDS011;49701;48.072;7.800;2023-08-07T09:15:19;3.85;;;1.60;;
2662;SDS011;49701;48.072;7.800;2023-08-07T09:17:48;2.67;;;1.40;;
2662;SDS011;49701;48.072;7.800;2023-08-07T09:20:16;2.45;;;1.75;;
2662;SDS011;49701;48.072;7.800;2023-08-07T09:25:08;2.40;;;1.55;;
2662;SDS011;49701;48.072;7.800;2023-08-07T09:27:35;2.20;;;1.27;;
2662;SDS011;49701;48.072;7.800;2023-08-07T09:30:02;3.75;;;1.60;;
2662;SDS011;49701;48.072;7.800;2023-08-07T09:32:29;2.22;;;1.38;;
2662;SDS011;49701;48.072;7.800;2023-08-07T10:04:17;2.30;;;1.00;;
2662;SDS011;49701;48.072;7.800;2023-08-07T10:06:43;1.83;;;0.98;;
2662;SDS011;49701;48.072;7.800;2023-08-07T10:09:10;2.50;;;1.02;;
2662;SDS011;49701;48.072;7.800;2023-08-07T10:11:37;2.05;;;0.90;;
2662;SDS011;49701;48.072;7.800;2023-08-07T10:14:04;2.92;;;1.02;;
2662;SDS011;49701;48.072;7.800;2023-08-07T10:16:30;0.93;;;0.80;;
2662;SDS011;49701;48.072;7.800;2023-08-07T10:18:57;2.38;;;1.10;;
2662;SDS011;49701;48.072;7.800;2023-08-07T10:21:23;1.58;;;1.02;;
2662;SDS011;49701;48.072;7.800;2023-08-07T10:23:52;2.97;;;1.00;;
2662;SDS011;49701;48.072;7.800;2023-08-07T10:26:20;2.97;;;0.93;;
2662;SDS011;49701;48.072;7.800;2023-08-07T10:28:48;4.32;;;1.20;;
2662;SDS011;49701;48.072;7.800;2023-08-07T10:31:16;1.80;;;0.93;;
2662;SDS011;49701;48.072;7.800;2023-08-07T10:33:43;2.70;;;1.13;;
2662;SDS011;49701;48.072;7.800;2023-08-07T10:36:09;2.83;;;1.00;;
2662;SDS011;49701;48.072;7.800;2023-08-07T10:38:35;1.77;;;1.00;;
2662;SDS011;49701;48.072;7.800;2023-08-07T10:43:37;2.20;;;1.02;;
2662;SDS011;49701;48.072;7.800;2023-08-07T10:46:05;2.50;;;1.13;;
2662;SDS011;49701;48.072;7.800;2023-08-07T10:48:40;2.15;;;1.17;;
2662;SDS011;49701;48.072;7.800;2023-08-07T10:51:18;1.98;;;1.10;;
2662;SDS011;49701;48.072;7.800;2023-08-07T10:53:47;2.15;;;1.10;;
2662;SDS011;49701;48.072;7.800;2023-08-07T10:58:41;1.75;;;0.90;;
2662;SDS011;49701;48.072;7.800;2023-08-07T11:04:10;2.00;;;1.05;;
2662;SDS011;49701;48.072;7.800;2023-08-07T11:06:37;3.55;;;0.80;;
2662;SDS011;49701;48.072;7.800;2023-08-07T11:09:08;1.27;;;0.60;;
2662;SDS011;49701;48.072;7.800;2023-08-07T11:11:44;2.15;;;1.00;;
2662;SDS011;49701;48.072;7.800;2023-08-07T11:14:15;3.03;;;1.30;;
2662;SDS011;49701;48.072;7.800;2023-08-07T11:16:42;2.13;;;1.30;;
2662;SDS011;49701;48.072;7.800;2023-08-07T11:19:09;1.27;;;0.88;;
2662;SDS011;49701;48.072;7.800;2023-08-07T11:21:36;2.88;;;1.10;;
2662;SDS011;49701;48.072;7.800;2023-08-07T11:24:02;3.35;;;0.70;;
2662;SDS011;49701;48.072;7.800;2023-08-07T13:28:57;1.35;;;0.80;;
2662;SDS011;49701;48.072;7.800;2023-08-07T13:31:22;1.85;;;0.70;;
2662;SDS011;49701;48.072;7.800;2023-08-07T13:33:48;7.35;;;3.63;;
2662;SDS011;49701;48.072;7.800;2023-08-07T13:36:13;1.83;;;0.93;;
2662;SDS011;49701;48.072;7.800;2023-08-07T13:38:39;2.72;;;1.80;;
2662;SDS011;49701;48.072;7.800;2023-08-07T13:41:05;1.58;;;0.90;;
2662;SDS011;49701;48.072;7.800;2023-08-07T13:43:32;3.83;;;1.88;;
2662;SDS011;49701;48.072;7.800;2023-08-07T13:45:57;2.70;;;1.77;;
2662;SDS011;49701;48.072;7.800;2023-08-07T13:48:23;1.10;;;0.82;;
2662;SDS011;49701;48.072;7.800;2023-08-07T13:50:52;1.42;;;0.80;;
2662;SDS011;49701;48.072;7.800;2023-08-07T13:53:18;3.17;;;1.98;;
2662;SDS011;49701;48.072;7.800;2023-08-07T13:55:45;0.90;;;0.70;;
2662;SDS011;49701;48.072;7.800;2023-08-07T13:58:12;0.90;;;0.77;;
2662;SDS011;49701;48.072;7.800;2023-08-07T14:00:41;2.35;;;0.60;;
2662;SDS011;49701;48.072;7.800;2023-08-07T14:03:10;2.72;;;0.60;;
2662;SDS011;49701;48.072;7.800;2023-08-07T14:05:37;2.13;;;0.95;;
2662;SDS011;49701;48.072;7.800;2023-08-07T14:08:03;1.60;;;0.75;;
2662;SDS011;49701;48.072;7.800;2023-08-07T14:10:29;1.23;;;0.70;;
2662;SDS011;49701;48.072;7.800;2023-08-07T14:12:55;1.48;;;0.60;;
2662;SDS011;49701;48.072;7.800;2023-08-07T14:15:20;1.05;;;0.70;;
2662;SDS011;49701;48.072;7.800;2023-08-07T14:17:46;1.15;;;0.88;;
2662;SDS011;49701;48.072;7.800;2023-08-07T14:20:12;2.13;;;0.77;;
2662;SDS011;49701;48.072;7.800;2023-08-07T14:22:37;2.90;;;0.93;;
2662;SDS011;49701;48.072;7.800;2023-08-07T14:25:05;1.42;;;0.60;;
2662;SDS011;49701;48.072;7.800;2023-08-07T14:27:31;1.23;;;0.60;;
2662;SDS011;49701;48.072;7.800;2023-08-07T14:29:56;1.40;;;0.80;;
2662;SDS011;49701;48.072;7.800;2023-08-07T14:32:22;1.75;;;0.70;;
2662;SDS011;49701;48.072;7.800;2023-08-07T14:34:48;2.65;;;0.82;;
2662;SDS011;49701;48.072;7.800;2023-08-07T14:37:14;1.00;;;0.70;;
2662;SDS011;49701;48.072;7.800;2023-08-07T14:39:40;1.73;;;0.90;;
2662;SDS011;49701;48.072;7.800;2023-08-07T14:42:05;1.75;;;0.70;;
2662;SDS011;49701;48.072;7.800;2023-08-07T14:44:32;0.73;;;0.70;;
2662;SDS011;49701;48.072;7.800;2023-08-07T14:46:58;1.20;;;0.60;;
2662;SDS011;49701;48.072;7.800;2023-08-07T14:49:24;2.22;;;0.70;;
2662;SDS011;49701;48.072;7.800;2023-08-07T14:51:49;0.90;;;0.63;;
2662;SDS011;49701;48.072;7.800;2023-08-07T14:54:15;1.20;;;0.60;;
2662;SDS011;49701;48.072;7.800;2023-08-07T14:56:41;0.60;;;0.50;;
2662;SDS011;49701;48.072;7.800;2023-08-07T14:59:06;1.85;;;0.63;;
2662;SDS011;49701;48.072;7.800;2023-08-07T15:01:32;0.98;;;0.68;;
2662;SDS011;49701;48.072;7.800;2023-08-07T15:03:58;1.30;;;0.52;;
2662;SDS011;49701;48.072;7.800;2023-08-07T15:06:23;0.70;;;0.50;;
2662;SDS011;49701;48.072;7.800;2023-08-07T15:23:25;0.80;;;0.50;;
2662;SDS011;49701;48.072;7.800;2023-08-07T15:25:51;0.60;;;0.50;;
2662;SDS011;49701;48.072;7.800;2023-08-07T15:28:17;0.60;;;0.50;;
2662;SDS011;49701;48.072;7.800;2023-08-07T15:47:45;0.47;;;0.40;;
2662;SDS011;49701;48.072;7.800;2023-08-07T15:50:11;1.95;;;0.63;;
2662;SDS011;49701;48.072;7.800;2023-08-07T15:52:37;0.85;;;0.60;;
2662;SDS011;49701;48.072;7.800;2023-08-07T15:55:03;0.65;;;0.60;;
2662;SDS011;49701;48.072;7.800;2023-08-07T15:57:29;0.82;;;0.60;;
2662;SDS011;49701;48.072;7.800;2023-08-07T15:59:55;2.72;;;0.60;;
2662;SDS011;49701;48.072;7.800;2023-08-07T16:02:21;1.00;;;0.50;;
2662;SDS011;49701;48.072;7.800;2023-08-07T16:04:47;0.85;;;0.70;;
2662;SDS011;49701;48.072;7.800;2023-08-07T16:07:12;0.50;;;0.50;;
2662;SDS011;49701;48.072;7.800;2023-08-07T16:09:38;1.73;;;0.70;;
2662;SDS011;49701;48.072;7.800;2023-08-07T16:12:04;1.05;;;0.60;;
2662;SDS011;49701;48.072;7.800;2023-08-07T16:14:30;2.45;;;0.88;;
2662;SDS011;49701;48.072;7.800;2023-08-07T16:16:55;1.05;;;0.60;;
2662;SDS011;49701;48.072;7.800;2023-08-07T16:19:21;4.13;;;0.88;;
2662;SDS011;49701;48.072;7.800;2023-08-07T16:21:47;0.70;;;0.60;;
2662;SDS011;49701;48.072;7.800;2023-08-07T16:24:12;1.65;;;0.60;;
2662;SDS011;49701;48.072;7.800;2023-08-07T16:26:38;0.70;;;0.70;;
2662;SDS011;49701;48.072;7.800;2023-08-07T16:29:04;1.83;;;0.90;;
2662;SDS011;49701;48.072;7.800;2023-08-07T16:31:29;1.95;;;0.63;;
2662;SDS011;49701;48.072;7.800;2023-08-07T16:33:55;2.40;;;0.80;;
2662;SDS011;49701;48.072;7.800;2023-08-07T16:36:21;1.05;;;0.70;;
2662;SDS011;49701;48.072;7.800;2023-08-07T16:38:46;1.00;;;0.50;;
2662;SDS011;49701;48.072;7.800;2023-08-07T16:41:14;0.88;;;0.80;;
2662;SDS011;49701;48.072;7.800;2023-08-07T16:43:40;1.77;;;0.63;;
2662;SDS011;49701;48.072;7.800;2023-08-07T16:46:07;2.20;;;0.80;;
2662;SDS011;49701;48.072;7.800;2023-08-07T16:48:33;1.55;;;0.70;;
2662;SDS011;49701;48.072;7.800;2023-08-07T16:50:59;3.22;;;0.60;;
2662;SDS011;49701;48.072;7.800;2023-08-07T16:53:25;1.43;;;0.60;;
2662;SDS011;49701;48.072;7.800;2023-08-07T16:55:50;2.47;;;0.70;;
2662;SDS011;49701;48.072;7.800;2023-08-07T16:58:16;1.13;;;0.70;;
2662;SDS011;49701;48.072;7.800;2023-08-07T17:00:42;0.80;;;0.70;;
2662;SDS011;49701;48.072;7.800;2023-08-07T17:03:07;1.50;;;0.80;;
2662;SDS011;49701;48.072;7.800;2023-08-07T17:05:35;3.13;;;0.85;;
2662;SDS011;49701;48.072;7.800;2023-08-07T17:08:00;0.65;;;0.60;;
2662;SDS011;49701;48.072;7.800;2023-08-07T17:10:26;1.75;;;0.52;;
2662;SDS011;49701;48.072;7.800;2023-08-07T17:12:52;1.38;;;0.80;;
2662;SDS011;49701;48.072;7.800;2023-08-07T17:15:17;1.65;;;0.75;;
2662;SDS011;49701;48.072;7.800;2023-08-07T17:17:43;1.05;;;0.57;;
2662;SDS011;49701;48.072;7.800;2023-08-07T17:20:09;1.48;;;0.80;;
2662;SDS011;49701;48.072;7.800;2023-08-07T17:22:35;1.20;;;0.90;;
2662;SDS011;49701;48.072;7.800;2023-08-07T17:25:01;1.48;;;0.93;;
2662;SDS011;49701;48.072;7.800;2023-08-07T17:27:26;3.17;;;0.82;;
2662;SDS011;49701;48.072;7.800;2023-08-07T17:29:52;0.60;;;0.50;;
2662;SDS011;49701;48.072;7.800;2023-08-07T17:32:19;1.20;;;0.90;;
2662;SDS011;49701;48.072;7.800;2023-08-07T17:34:44;1.73;;;0.63;;
2662;SDS011;49701;48.072;7.800;2023-08-07T17:37:10;1.05;;;0.80;;
2662;SDS011;49701;48.072;7.800;2023-08-07T17:39:36;2.95;;;0.70;;
2662;SDS011;49701;48.072;7.800;2023-08-07T17:42:02;1.75;;;0.80;;
2662;SDS011;49701;48.072;7.800;2023-08-07T17:44:30;1.45;;;1.00;;
2662;SDS011;49701;48.072;7.800;2023-08-07T17:46:56;3.15;;;0.90;;
2662;SDS011;49701;48.072;7.800;2023-08-07T17:49:21;1.25;;;0.60;;
2662;SDS011;49701;48.072;7.800;2023-08-07T17:51:47;1.05;;;0.75;;
2662;SDS011;49701;48.072;7.800;2023-08-07T17:54:13;2.00;;;1.00;;
2662;SDS011;49701;48.072;7.800;2023-08-07T17:56:38;1.30;;;0.65;;
2662;SDS011;49701;48.072;7.800;2023-08-07T17:59:04;3.90;;;0.70;;
2662;SDS011;49701;48.072;7.800;2023-08-07T18:01:30;1.25;;;0.77;;
2662;SDS011;49701;48.072;7.800;2023-08-07T18:03:56;2.25;;;0.73;;
2662;SDS011;49701;48.072;7.800;2023-08-07T18:06:28;5.43;;;0.90;;
2662;SDS011;49701;48.072;7.800;2023-08-07T18:08:54;1.25;;;0.70;;
2662;SDS011;49701;48.072;7.800;2023-08-07T18:11:19;2.65;;;0.82;;
2662;SDS011;49701;48.072;7.800;2023-08-07T18:13:45;1.98;;;0.80;;
2662;SDS011;49701;48.072;7.800;2023-08-07T18:16:11;1.48;;;1.00;;
2662;SDS011;49701;48.072;7.800;2023-08-07T18:18:36;1.60;;;0.73;;
2662;SDS011;49701;48.072;7.800;2023-08-07T18:21:02;1.17;;;0.80;;
2662;SDS011;49701;48.072;7.800;2023-08-07T18:23:28;2.30;;;0.90;;
2662;SDS011;49701;48.072;7.800;2023-08-07T18:25:53;1.20;;;0.90;;
2662;SDS011;49701;48.072;7.800;2023-08-07T18:28:19;2.25;;;0.90;;
2662;SDS011;49701;48.072;7.800;2023-08-07T18:30:45;1.55;;;0.85;;
2662;SDS011;49701;48.072;7.800;2023-08-07T18:33:10;1.47;;;0.87;;
2662;SDS011;49701;48.072;7.800;2023-08-07T18:35:38;2.83;;;1.00;;
2662;SDS011;49701;48.072;7.800;2023-08-07T18:38:03;1.52;;;0.90;;
2662;SDS011;49701;48.072;7.800;2023-08-07T18:40:29;2.60;;;1.05;;
2662;SDS011;49701;48.072;7.800;2023-08-07T18:42:55;1.85;;;1.15;;
2662;SDS011;49701;48.072;7.800;2023-08-07T18:45:20;1.85;;;1.50;;
2662;SDS011;49701;48.072;7.800;2023-08-07T18:47:46;1.98;;;1.77;;
2662;SDS011;49701;48.072;7.800;2023-08-07T18:50:12;2.72;;;1.23;;
2662;SDS011;49701;48.072;7.800;2023-08-07T18:52:37;2.92;;;1.40;;
2662;SDS011;49701;48.072;7.800;2023-08-07T18:55:03;3.05;;;1.40;;
2662;SDS011;49701;48.072;7.800;2023-08-07T18:57:29;2.75;;;1.40;;
2662;SDS011;49701;48.072;7.800;2023-08-07T18:59:55;3.30;;;1.70;;
2662;SDS011;49701;48.072;7.800;2023-08-07T19:02:20;3.63;;;1.40;;
2662;SDS011;49701;48.072;7.800;2023-08-07T19:04:46;2.90;;;1.42;;
2662;SDS011;49701;48.072;7.800;2023-08-07T19:07:12;2.17;;;1.23;;
2662;SDS011;49701;48.072;7.800;2023-08-07T19:09:38;1.67;;;1.05;;
2662;SDS011;49701;48.072;7.800;2023-08-07T19:19:21;4.28;;;1.70;;
2662;SDS011;49701;48.072;7.800;2023-08-07T19:21:46;2.55;;;1.60;;
2662;SDS011;49701;48.072;7.800;2023-08-07T19:24:12;2.63;;;1.30;;
2662;SDS011;49701;48.072;7.800;2023-08-07T19:26:38;1.80;;;1.13;;
2662;SDS011;49701;48.072;7.800;2023-08-07T19:29:05;2.75;;;1.08;;
2662;SDS011;49701;48.072;7.800;2023-08-07T19:31:31;2.28;;;1.20;;
2662;SDS011;49701;48.072;7.800;2023-08-07T19:33:57;2.65;;;1.30;;
2662;SDS011;49701;48.072;7.800;2023-08-07T19:36:22;1.48;;;1.00;;
2662;SDS011;49701;48.072;7.800;2023-08-07T19:38:48;1.63;;;1.27;;
2662;SDS011;49701;48.072;7.800;2023-08-07T19:41:14;1.17;;;1.08;;
2662;SDS011;49701;48.072;7.800;2023-08-07T19:43:39;4.57;;;1.30;;
2662;SDS011;49701;48.072;7.800;2023-08-07T19:46:07;3.63;;;1.10;;
2662;SDS011;49701;48.072;7.800;2023-08-07T19:48:32;2.50;;;1.30;;
2662;SDS011;49701;48.072;7.800;2023-08-07T19:50:58;1.67;;;1.13;;
2662;SDS011;49701;48.072;7.800;2023-08-07T19:53:24;2.70;;;1.20;;
2662;SDS011;49701;48.072;7.800;2023-08-07T19:55:49;2.95;;;1.63;;
2662;SDS011;49701;48.072;7.800;2023-08-07T19:58:16;1.58;;;1.20;;
2662;SDS011;49701;48.072;7.800;2023-08-07T20:00:44;4.25;;;1.35;;
2662;SDS011;49701;48.072;7.800;2023-08-07T20:03:10;3.38;;;1.40;;
2662;SDS011;49701;48.072;7.800;2023-08-07T20:05:39;1.45;;;1.23;;
2662;SDS011;49701;48.072;7.800;2023-08-07T20:39:41;7.78;;;1.45;;
2662;SDS011;49701;48.072;7.800;2023-08-07T20:42:07;3.60;;;1.15;;
2662;SDS011;49701;48.072;7.800;2023-08-07T20:44:34;3.22;;;1.40;;
2662;SDS011;49701;48.072;7.800;2023-08-07T20:47:00;1.05;;;1.02;;
2662;SDS011;49701;48.072;7.800;2023-08-07T20:49:26;3.53;;;1.27;;
2662;SDS011;49701;48.072;7.800;2023-08-07T20:51:52;1.95;;;1.27;;
2662;SDS011;49701;48.072;7.800;2023-08-07T20:54:17;1.45;;;1.23;;
2662;SDS011;49701;48.072;7.800;2023-08-07T20:56:43;2.80;;;1.20;;
2662;SDS011;49701;48.072;7.800;2023-08-07T20:59:09;2.80;;;1.42;;
2662;SDS011;49701;48.072;7.800;2023-08-07T21:01:34;4.07;;;1.38;;
2662;SDS011;49701;48.072;7.800;2023-08-07T21:04:00;1.90;;;1.17;;
2662;SDS011;49701;48.072;7.800;2023-08-07T21:06:26;1.95;;;1.30;;
2662;SDS011;49701;48.072;7.800;2023-08-07T21:08:51;3.08;;;1.25;;
2662;SDS011;49701;48.072;7.800;2023-08-07T21:11:17;2.72;;;1.40;;
2662;SDS011;49701;48.072;7.800;2023-08-07T21:13:43;3.33;;;1.20;;
2662;SDS011;49701;48.072;7.800;2023-08-07T21:16:08;2.75;;;1.17;;
2662;SDS011;49701;48.072;7.800;2023-08-07T21:18:34;1.85;;;1.17;;
2662;SDS011;49701;48.072;7.800;2023-08-07T21:21:00;1.27;;;1.15;;
2662;SDS011;49701;48.072;7.800;2023-08-07T21:23:25;1.45;;;1.23;;
2662;SDS011;49701;48.072;7.800;2023-08-07T21:25:51;2.38;;;1.40;;
2662;SDS011;49701;48.072;7.800;2023-08-07T21:28:17;1.90;;;1.20;;
2662;SDS011;49701;48.072;7.800;2023-08-07T21:30:43;1.77;;;1.33;;
2662;SDS011;49701;48.072;7.800;2023-08-07T21:33:09;2.75;;;1.63;;
2662;SDS011;49701;48.072;7.800;2023-08-07T21:35:35;3.15;;;1.67;;
2662;SDS011;49701;48.072;7.800;2023-08-07T21:38:01;3.72;;;1.48;;
2662;SDS011;49701;48.072;7.800;2023-08-07T21:40:26;3.72;;;1.45;;
2662;SDS011;49701;48.072;7.800;2023-08-07T21:42:52;2.20;;;1.40;;
2662;SDS011;49701;48.072;7.800;2023-08-07T21:45:18;3.60;;;1.60;;
2662;SDS011;49701;48.072;7.800;2023-08-07T21:47:43;2.47;;;1.55;;
2662;SDS011;49701;48.072;7.800;2023-08-07T21:50:09;3.60;;;1.58;;
2662;SDS011;49701;48.072;7.800;2023-08-07T21:52:35;2.05;;;1.35;;
2662;SDS011;49701;48.072;7.800;2023-08-07T21:55:01;3.85;;;1.80;;
2662;SDS011;49701;48.072;7.800;2023-08-07T21:57:29;2.97;;;1.60;;
2662;SDS011;49701;48.072;7.800;2023-08-07T21:59:55;2.63;;;1.40;;
2662;SDS011;49701;48.072;7.800;2023-08-07T22:02:20;6.05;;;1.40;;
2662;SDS011;49701;48.072;7.800;2023-08-07T22:04:46;2.25;;;1.85;;
2662;SDS011;49701;48.072;7.800;2023-08-07T22:07:12;4.35;;;2.75;;
2662;SDS011;49701;48.072;7.800;2023-08-07T22:09:37;4.07;;;2.30;;
2662;SDS011;49701;48.072;7.800;2023-08-07T22:12:03;3.10;;;1.52;;
2662;SDS011;49701;48.072;7.800;2023-08-07T22:14:29;7.30;;;3.33;;
2662;SDS011;49701;48.072;7.800;2023-08-07T22:16:55;6.65;;;4.00;;
2662;SDS011;49701;48.072;7.800;2023-08-07T22:19:21;2.92;;;2.00;;
2662;SDS011;49701;48.072;7.800;2023-08-07T22:21:46;2.63;;;1.40;;
2662;SDS011;49701;48.072;7.800;2023-08-07T22:24:13;5.53;;;2.40;;
2662;SDS011;49701;48.072;7.800;2023-08-07T22:26:39;10.82;;;6.20;;
2662;SDS011;49701;48.072;7.800;2023-08-07T22:29:04;9.63;;;6.35;;
2662;SDS011;49701;48.072;7.800;2023-08-07T22:31:30;10.38;;;6.18;;
2662;SDS011;49701;48.072;7.800;2023-08-07T22:33:56;10.20;;;6.20;;
2662;SDS011;49701;48.072;7.800;2023-08-07T22:36:21;10.05;;;5.90;;